Lightwater, United Kingdom
Current Conditions -  °F | °C
As of 7:50 PM on Tuesday 25 Nov 2014 (Local Time) from EGLF Reporting Station
Light Rain Light Rain  
Wind Chill: 40°   Ceiling: Unl
Heat Index: 45°   Visibility: 6mi
Dew Point: 45°   Wind: 8mph
Humidity: 100%   Direction: 50°NE
Pressure: 30.03"   Gusts: NA
Location:  51.35°N, 0.67°W
Report Text: EGLF 251950Z 05007KT 9999 -RA FEW028 SCT038 07/07 Q1017 RERA
Loading
Personal Weather Stations






























Interactive Weather Map New forecast layout! Learn more

10-Day Weather Forecast

Advertisements
Track Severe Weather on mobile